createdAt,value
2024-01-25T00:00:33.984Z,93.97
2024-01-25T00:01:33.916Z,95.95
2024-01-25T00:02:33.839Z,92.66
2024-01-25T00:03:33.948Z,93.93
2024-01-25T00:04:34.008Z,93.92
2024-01-25T00:05:33.964Z,93.88
2024-01-25T00:06:34.005Z,94.07
2024-01-25T00:07:33.893Z,92.01
2024-01-25T00:08:33.854Z,92.95
2024-01-25T00:09:33.967Z,93.12
2024-01-25T00:10:33.883Z,93.79
2024-01-25T00:11:33.865Z,93.75
2024-01-25T00:12:33.939Z,93.54
2024-01-25T00:13:33.868Z,91.33
2024-01-25T00:14:33.891Z,92.97
2024-01-25T00:15:33.968Z,92.43
2024-01-25T00:16:33.895Z,91.94
2024-01-25T00:17:33.918Z,92.45
2024-01-25T00:18:34.067Z,90.78
2024-01-25T00:19:34.046Z,92.94
2024-01-25T00:20:33.995Z,91.86
2024-01-25T00:21:33.904Z,91.98
2024-01-25T00:22:33.875Z,90.49
2024-01-25T00:23:33.875Z,92.25
2024-01-25T00:24:33.987Z,90.87
2024-01-25T00:25:33.866Z,91.17
2024-01-25T00:26:33.914Z,89.51
2024-01-25T00:27:33.940Z,91.12
2024-01-25T00:28:34.006Z,90.08
2024-01-25T00:29:33.893Z,91.82
2024-01-25T00:30:33.917Z,90.05
2024-01-25T00:31:33.880Z,89.62
2024-01-25T00:32:34.014Z,89.70
2024-01-25T00:33:34.041Z,88.86
2024-01-25T00:34:34.169Z,90.05
2024-01-25T00:35:34.031Z,89.01
2024-01-25T00:36:33.990Z,89.23
2024-01-25T00:37:33.904Z,89.13
2024-01-25T00:38:33.913Z,89.10
2024-01-25T00:39:33.934Z,88.86
2024-01-25T00:40:33.964Z,88.65
2024-01-25T00:41:33.913Z,88.32
2024-01-25T00:42:33.993Z,86.68
2024-01-25T00:43:33.901Z,88.57
2024-01-25T00:44:33.980Z,87.55
2024-01-25T00:45:33.971Z,87.08
2024-01-25T00:46:33.898Z,89.36
2024-01-25T00:47:33.999Z,86.83
2024-01-25T00:48:34.119Z,86.21
2024-01-25T00:49:34.064Z,86.32
2024-01-25T00:50:34.147Z,86.86
2024-01-25T00:51:34.041Z,86.69
2024-01-25T00:52:34.032Z,86.88
2024-01-25T00:53:34.041Z,86.64
2024-01-25T00:54:34.129Z,85.21
2024-01-25T00:55:34.222Z,84.57
2024-01-25T00:56:34.166Z,85.50
2024-01-25T00:57:34.153Z,86.01
2024-01-25T00:58:34.133Z,86.41
2024-01-25T00:59:34.149Z,85.23
2024-01-25T01:00:34.324Z,85.08
2024-01-25T01:01:34.307Z,85.70
2024-01-25T01:02:34.251Z,84.31
2024-01-25T01:03:34.296Z,87.36
2024-01-25T01:04:46.741Z,84.12
2024-01-25T01:05:35.400Z,84.22
2024-01-25T01:06:34.380Z,84.44
2024-01-25T01:07:34.448Z,85.59
2024-01-25T01:08:34.220Z,84.54
2024-01-25T01:09:34.235Z,85.45
2024-01-25T01:10:34.311Z,83.84
2024-01-25T01:11:34.239Z,83.59
2024-01-25T01:12:34.327Z,83.05
2024-01-25T01:13:34.304Z,84.04
2024-01-25T01:14:34.239Z,82.82
2024-01-25T01:15:34.283Z,82.40
2024-01-25T01:16:34.234Z,84.55
2024-01-25T01:17:34.284Z,83.16
2024-01-25T01:18:34.403Z,84.37
2024-01-25T01:19:34.323Z,82.02
2024-01-25T01:20:34.288Z,81.47
2024-01-25T01:21:34.303Z,84.12
2024-01-25T01:22:34.293Z,81.88
2024-01-25T01:23:34.284Z,82.78
2024-01-25T01:24:34.332Z,82.22
2024-01-25T01:25:34.330Z,84.65
2024-01-25T01:26:34.337Z,81.15
2024-01-25T01:27:34.396Z,81.43
2024-01-25T01:28:34.363Z,81.54
2024-01-25T01:29:34.408Z,80.95
2024-01-25T01:30:34.466Z,80.96
2024-01-25T01:31:34.378Z,82.59
2024-01-25T01:32:34.477Z,80.80
2024-01-25T01:33:34.496Z,80.78
2024-01-25T01:34:34.803Z,80.03
2024-01-25T01:35:34.462Z,80.48
2024-01-25T01:36:34.477Z,79.64
2024-01-25T01:37:34.441Z,81.39
2024-01-25T01:38:34.463Z,79.59
2024-01-25T01:39:34.491Z,79.12
2024-01-25T01:40:34.564Z,80.34
2024-01-25T01:41:34.537Z,78.52
2024-01-25T01:42:34.620Z,77.19
2024-01-25T01:43:34.610Z,76.52
2024-01-25T01:44:34.697Z,76.14
2024-01-25T01:45:34.768Z,76.93
2024-01-25T01:46:34.811Z,75.73
2024-01-25T01:47:34.940Z,75.96
2024-01-25T01:48:35.193Z,75.49
2024-01-25T01:49:35.187Z,74.50
2024-01-25T01:50:35.247Z,74.32
2024-01-25T01:51:35.232Z,73.75
2024-01-25T01:52:35.156Z,72.21
2024-01-25T01:53:35.203Z,71.29
2024-01-25T01:54:35.304Z,70.67
2024-01-25T01:55:35.273Z,71.93
2024-01-25T01:56:35.317Z,69.72
2024-01-25T01:57:35.386Z,68.32
2024-01-25T01:58:35.372Z,67.28
2024-01-25T01:59:35.392Z,67.46
2024-01-25T02:00:35.457Z,66.69
2024-01-25T02:01:35.491Z,65.54
2024-01-25T02:02:35.444Z,64.49
2024-01-25T02:03:35.518Z,65.06
2024-01-25T02:04:35.534Z,63.73
2024-01-25T02:05:35.451Z,63.36
2024-01-25T02:06:35.646Z,62.25
2024-01-25T02:07:35.480Z,62.28
2024-01-25T02:08:35.484Z,61.28
2024-01-25T02:09:35.526Z,60.59
2024-01-25T02:10:35.511Z,59.31
2024-01-25T02:11:35.534Z,57.26
2024-01-25T02:12:35.612Z,58.05
2024-01-25T02:13:35.565Z,57.28
2024-01-25T02:14:35.584Z,57.45
2024-01-25T02:15:35.685Z,55.73
2024-01-25T02:16:35.674Z,54.37
2024-01-25T02:17:35.768Z,54.23
2024-01-25T02:18:35.856Z,52.82
2024-01-25T02:19:35.724Z,52.59
2024-01-25T02:20:35.695Z,50.00
2024-01-25T02:21:35.762Z,52.13
2024-01-25T02:22:35.798Z,50.28
2024-01-25T02:23:35.846Z,52.79
2024-01-25T02:24:35.954Z,50.00
2024-01-25T02:25:35.990Z,53.69
2024-01-25T02:26:36.039Z,50.21
2024-01-25T02:27:36.205Z,53.54
2024-01-25T02:28:36.288Z,54.63
2024-01-25T02:29:36.239Z,54.16
2024-01-25T02:30:36.374Z,53.42
2024-01-25T02:31:36.376Z,51.14
2024-01-25T02:32:36.508Z,52.04
2024-01-25T02:33:36.730Z,54.20
2024-01-25T02:34:36.689Z,52.08
2024-01-25T02:35:36.678Z,52.82
2024-01-25T02:36:36.774Z,54.14
2024-01-25T02:37:36.808Z,54.71
2024-01-25T02:38:36.882Z,52.42
2024-01-25T02:39:37.001Z,51.95
2024-01-25T02:40:37.002Z,51.98
2024-01-25T02:41:37.059Z,52.36
2024-01-25T02:42:37.147Z,50.54
2024-01-25T02:43:37.187Z,50.58
2024-01-25T02:44:37.262Z,53.41
2024-01-25T02:45:37.351Z,50.61
2024-01-25T02:46:37.501Z,50.40
2024-01-25T02:47:37.519Z,51.60
2024-01-25T02:48:37.571Z,52.60
2024-01-25T02:49:37.839Z,54.14
2024-01-25T02:50:37.562Z,50.93
2024-01-25T02:51:37.667Z,51.79
2024-01-25T02:52:37.666Z,53.18
2024-01-25T02:53:37.721Z,51.70
2024-01-25T02:54:37.870Z,51.80
2024-01-25T02:55:37.824Z,52.96
2024-01-25T02:56:37.866Z,52.73
2024-01-25T02:57:37.997Z,53.02
2024-01-25T02:58:37.995Z,51.12
2024-01-25T02:59:38.015Z,52.19
2024-01-25T03:00:38.183Z,52.89
2024-01-25T03:01:38.156Z,52.55
2024-01-25T03:02:38.138Z,52.28
2024-01-25T03:03:38.285Z,51.65
2024-01-25T03:04:38.350Z,52.89
2024-01-25T03:05:38.366Z,51.79
2024-01-25T03:06:38.494Z,54.01
2024-01-25T03:07:38.409Z,51.17
2024-01-25T03:08:38.382Z,55.18
2024-01-25T03:09:38.465Z,53.26
2024-01-25T03:10:38.446Z,53.78
2024-01-25T03:11:38.496Z,53.50
2024-01-25T03:12:38.639Z,53.41
2024-01-25T03:13:38.592Z,53.51
2024-01-25T03:14:38.617Z,51.18
2024-01-25T03:15:38.666Z,55.45
2024-01-25T03:16:38.679Z,53.71
2024-01-25T03:17:38.744Z,52.37
2024-01-25T03:18:38.840Z,52.37
2024-01-25T03:19:38.863Z,54.74
2024-01-25T03:20:38.802Z,53.43
2024-01-25T03:21:38.839Z,51.04
2024-01-25T03:22:38.869Z,53.61
2024-01-25T03:23:38.923Z,53.49
2024-01-25T03:24:39.006Z,53.17
2024-01-25T03:25:38.970Z,52.85
2024-01-25T03:26:38.995Z,51.24
2024-01-25T03:27:39.092Z,51.69
2024-01-25T03:28:39.067Z,51.73
2024-01-25T03:29:39.103Z,54.46
2024-01-25T03:30:39.154Z,52.14
2024-01-25T03:31:39.161Z,54.50
2024-01-25T03:32:39.237Z,54.44
2024-01-25T03:33:39.428Z,52.70
2024-01-25T03:34:39.398Z,53.45
2024-01-25T03:35:39.304Z,53.64
2024-01-25T03:36:39.339Z,54.48
2024-01-25T03:37:39.436Z,53.63
2024-01-25T03:38:39.384Z,54.33
2024-01-25T03:39:39.462Z,52.02
2024-01-25T03:40:39.439Z,52.27
2024-01-25T03:41:39.473Z,53.32
2024-01-25T03:42:39.532Z,53.90
2024-01-25T03:43:44.179Z,53.62
2024-01-25T03:44:40.541Z,53.67
2024-01-25T03:45:39.563Z,54.04
2024-01-25T03:46:39.544Z,54.59
2024-01-25T03:47:39.580Z,53.56
2024-01-25T03:48:39.567Z,55.14
2024-01-25T03:49:39.630Z,50.45
2024-01-25T03:50:39.639Z,50.00
2024-01-25T03:51:39.643Z,51.91
2024-01-25T03:52:39.557Z,51.85
2024-01-25T03:53:39.556Z,51.08
2024-01-25T03:54:39.581Z,52.24
2024-01-25T03:55:39.550Z,52.71
2024-01-25T03:56:39.595Z,52.49
2024-01-25T03:57:39.662Z,52.89
2024-01-25T03:58:39.642Z,50.90
2024-01-25T03:59:39.569Z,50.81
2024-01-25T04:00:39.708Z,52.72
2024-01-25T04:01:39.699Z,51.46
2024-01-25T04:02:39.555Z,51.49
2024-01-25T04:03:39.664Z,53.33
2024-01-25T04:04:39.608Z,51.01
2024-01-25T04:05:39.629Z,53.09
2024-01-25T04:06:39.604Z,51.27
2024-01-25T04:07:39.578Z,51.28
2024-01-25T04:08:39.580Z,52.15
2024-01-25T04:09:39.605Z,52.36
2024-01-25T04:10:39.602Z,52.97
2024-01-25T04:11:39.611Z,53.20
2024-01-25T04:12:39.662Z,51.83
2024-01-25T04:13:39.628Z,52.80
2024-01-25T04:14:39.675Z,54.35
2024-01-25T04:15:39.752Z,52.40
2024-01-25T04:16:39.688Z,50.62
2024-01-25T04:17:39.801Z,51.55
2024-01-25T04:18:39.917Z,54.29
2024-01-25T04:19:39.903Z,51.19
2024-01-25T04:20:39.844Z,51.46
2024-01-25T04:21:39.816Z,54.33
2024-01-25T04:22:39.828Z,50.59
2024-01-25T04:23:39.831Z,52.64
2024-01-25T04:24:39.876Z,53.62
2024-01-25T04:25:39.940Z,52.50
2024-01-25T04:26:39.919Z,54.31
2024-01-25T04:27:39.952Z,52.08
2024-01-25T04:28:39.945Z,51.20
2024-01-25T04:29:39.974Z,51.25
2024-01-25T04:30:40.030Z,50.89
2024-01-25T04:31:40.033Z,53.33
2024-01-25T04:32:40.065Z,51.37
2024-01-25T04:33:40.790Z,50.64
2024-01-25T04:34:40.175Z,51.97
2024-01-25T04:35:40.256Z,50.00
2024-01-25T04:36:40.192Z,53.00
2024-01-25T04:37:40.157Z,52.89
2024-01-25T04:38:40.160Z,52.77
2024-01-25T04:39:40.223Z,54.87
2024-01-25T04:40:40.217Z,53.46
2024-01-25T04:41:40.235Z,54.19
2024-01-25T04:42:40.279Z,52.32
2024-01-25T04:43:40.264Z,52.93
2024-01-25T04:44:40.277Z,51.95
2024-01-25T04:45:40.348Z,51.79
2024-01-25T04:46:40.349Z,52.62
2024-01-25T04:47:40.370Z,53.08
2024-01-25T04:48:47.826Z,50.00
2024-01-25T04:49:47.725Z,50.00
2024-01-25T04:50:47.721Z,50.00
2024-01-25T04:51:47.713Z,50.00
2024-01-25T04:52:47.668Z,50.00
2024-01-25T04:53:47.659Z,51.47
2024-01-25T04:54:47.730Z,51.96
2024-01-25T04:55:47.661Z,50.28
2024-01-25T04:56:47.667Z,50.00
2024-01-25T04:57:47.679Z,50.71
2024-01-25T04:58:47.667Z,51.94
2024-01-25T04:59:47.683Z,51.07
2024-01-25T05:00:47.746Z,52.87
2024-01-25T05:01:47.762Z,53.41
2024-01-25T05:02:48.256Z,50.89
2024-01-25T05:03:48.417Z,53.46
2024-01-25T05:04:47.741Z,55.24
2024-01-25T05:05:47.703Z,55.79
2024-01-25T05:06:47.759Z,53.54
2024-01-25T05:07:47.885Z,52.01
2024-01-25T05:08:47.775Z,53.68
2024-01-25T05:09:47.743Z,53.61
2024-01-25T05:10:47.697Z,52.25
2024-01-25T05:11:47.697Z,51.34
2024-01-25T05:12:47.739Z,53.72
2024-01-25T05:13:47.696Z,50.61
2024-01-25T05:14:47.705Z,50.07
2024-01-25T05:15:47.787Z,54.19
2024-01-25T05:16:47.745Z,53.12
2024-01-25T05:17:47.911Z,51.27
2024-01-25T05:18:47.911Z,50.96
2024-01-25T05:19:48.070Z,51.43
2024-01-25T05:20:47.821Z,51.93
2024-01-25T05:21:47.845Z,56.17
2024-01-25T05:22:47.833Z,51.16
2024-01-25T05:23:47.840Z,52.45
2024-01-25T05:24:53.826Z,54.52
2024-01-25T05:25:47.859Z,54.57
2024-01-25T05:26:47.875Z,54.91
2024-01-25T05:27:47.897Z,54.37
2024-01-25T05:28:47.900Z,55.95
2024-01-25T05:29:48.745Z,54.19
2024-01-25T05:30:47.909Z,54.04
2024-01-25T05:31:47.908Z,54.07
2024-01-25T05:32:47.983Z,54.99
2024-01-25T05:33:48.037Z,55.78
2024-01-25T05:34:47.973Z,54.50
2024-01-25T05:35:47.924Z,54.18
2024-01-25T05:36:47.933Z,52.28
2024-01-25T05:37:47.875Z,52.15
2024-01-25T05:38:47.883Z,52.07
2024-01-25T05:39:58.072Z,51.48
2024-01-25T05:40:47.880Z,51.77
2024-01-25T05:41:47.898Z,52.18
2024-01-25T05:42:47.952Z,52.62
2024-01-25T05:43:47.873Z,55.12
2024-01-25T05:44:47.871Z,53.02
2024-01-25T05:45:47.927Z,53.82
2024-01-25T05:46:47.887Z,54.05
2024-01-25T05:47:48.019Z,54.10
2024-01-25T05:48:48.087Z,52.27
2024-01-25T05:49:52.966Z,51.74
2024-01-25T05:50:47.884Z,51.86
2024-01-25T05:51:48.066Z,51.99
2024-01-25T05:52:47.909Z,52.42
2024-01-25T05:53:47.886Z,52.60
2024-01-25T05:54:47.936Z,51.24
2024-01-25T05:55:47.882Z,51.84
2024-01-25T05:56:47.911Z,54.70
2024-01-25T05:57:47.948Z,53.52
2024-01-25T05:58:47.931Z,52.13
2024-01-25T05:59:47.930Z,50.00
2024-01-25T06:00:48.067Z,53.11
2024-01-25T06:01:48.060Z,52.61
2024-01-25T06:02:47.901Z,53.05
2024-01-25T06:03:47.990Z,50.00
2024-01-25T06:04:48.139Z,52.05
2024-01-25T06:05:48.074Z,51.69
2024-01-25T06:06:48.153Z,50.70
2024-01-25T06:07:48.132Z,52.81
2024-01-25T06:08:54.950Z,50.00
2024-01-25T06:09:49.029Z,50.24
2024-01-25T06:10:47.933Z,50.36
2024-01-25T06:11:47.918Z,50.35
2024-01-25T06:12:48.055Z,50.42
2024-01-25T06:13:47.962Z,53.13
2024-01-25T06:14:47.960Z,54.75
2024-01-25T06:15:48.060Z,51.08
2024-01-25T06:16:47.943Z,53.80
2024-01-25T06:17:47.963Z,52.39
2024-01-25T06:18:48.035Z,52.50
2024-01-25T06:19:48.019Z,52.79
2024-01-25T06:20:47.951Z,51.71
2024-01-25T06:21:47.948Z,53.58
2024-01-25T06:22:47.924Z,65.39
2024-01-25T06:24:35.206Z,50.00
2024-01-25T06:25:35.247Z,50.00
2024-01-25T06:30:27.610Z,50.00
2024-01-25T06:31:27.809Z,50.00
2024-01-25T06:32:27.601Z,50.00
2024-01-25T06:33:27.726Z,50.00
2024-01-25T06:34:27.728Z,50.00
2024-01-25T06:36:04.520Z,50.00
2024-01-25T06:37:04.573Z,50.00
2024-01-25T06:38:04.471Z,50.00
2024-01-25T06:39:04.490Z,50.00
2024-01-25T06:40:04.522Z,50.00
2024-01-25T06:41:04.508Z,50.47
2024-01-25T06:42:04.477Z,50.35
2024-01-25T06:43:04.549Z,50.35
2024-01-25T06:44:04.920Z,50.00
2024-01-25T06:45:04.575Z,50.40
2024-01-25T06:46:04.652Z,51.93
2024-01-25T06:47:04.629Z,53.70
2024-01-25T06:48:04.661Z,50.05
2024-01-25T06:49:04.842Z,50.00
2024-01-25T06:50:04.815Z,54.05
2024-01-25T06:51:04.821Z,56.07
2024-01-25T06:52:05.009Z,56.87
2024-01-25T06:53:04.944Z,57.23
2024-01-25T06:54:04.999Z,58.29
2024-01-25T06:55:05.125Z,60.25
2024-01-25T06:56:05.118Z,63.29
2024-01-25T06:57:05.190Z,61.22
2024-01-25T06:58:05.249Z,64.10
2024-01-25T06:59:05.289Z,63.39
2024-01-25T07:00:05.333Z,67.09
2024-01-25T07:01:05.371Z,66.96
2024-01-25T07:02:05.462Z,72.25
2024-01-25T07:03:05.460Z,73.27
2024-01-25T07:04:05.626Z,79.47
2024-01-25T07:05:05.433Z,88.79
2024-01-25T07:06:05.464Z,94.58
2024-01-25T07:07:05.601Z,97.60
2024-01-25T07:08:05.480Z,102.79
2024-01-25T07:09:05.489Z,109.35
2024-01-25T07:10:05.588Z,119.64
2024-01-25T07:11:05.496Z,127.64
2024-01-25T07:12:05.502Z,137.50
2024-01-25T07:13:05.634Z,143.05
2024-01-25T07:14:05.544Z,148.59
2024-01-25T07:15:05.600Z,158.47
2024-01-25T07:16:05.722Z,165.02
2024-01-25T07:17:05.734Z,170.98
2024-01-25T07:18:05.851Z,179.08
2024-01-25T07:19:06.039Z,183.04
2024-01-25T07:20:06.046Z,191.71
2024-01-25T07:21:05.988Z,199.18
2024-01-25T07:22:06.108Z,200.00
2024-01-25T07:23:06.122Z,199.49
2024-01-25T07:24:06.188Z,200.52
2024-01-25T07:25:06.329Z,199.37
2024-01-25T07:26:06.298Z,199.52
2024-01-25T07:27:06.364Z,199.66
2024-01-25T07:28:06.429Z,200.20
2024-01-25T07:29:06.455Z,199.59
2024-01-25T07:30:06.525Z,199.69
2024-01-25T07:31:06.572Z,200.00
2024-01-25T07:32:06.603Z,200.00
2024-01-25T07:33:06.707Z,200.00
2024-01-25T07:34:06.806Z,199.30
2024-01-25T07:35:06.834Z,199.59
2024-01-25T07:36:06.788Z,199.75
2024-01-25T07:37:06.875Z,198.67
2024-01-25T07:38:06.852Z,200.00
2024-01-25T07:39:06.908Z,197.90
2024-01-25T07:40:07.035Z,199.37
2024-01-25T07:41:06.987Z,199.34
2024-01-25T07:42:07.032Z,199.99
2024-01-25T07:43:07.110Z,197.84
2024-01-25T07:44:07.098Z,199.30
2024-01-25T07:45:07.162Z,199.67
2024-01-25T07:46:07.173Z,199.02
2024-01-25T07:47:07.187Z,198.59
2024-01-25T07:48:14.308Z,199.54
2024-01-25T07:49:08.320Z,199.72
2024-01-25T07:50:07.379Z,200.18
2024-01-25T07:51:07.343Z,201.87
2024-01-25T07:52:07.277Z,205.35
2024-01-25T07:53:07.240Z,211.46
2024-01-25T07:54:07.228Z,202.50
2024-01-25T07:55:07.285Z,199.11
2024-01-25T07:56:07.219Z,199.09
2024-01-25T07:57:07.249Z,199.37
2024-01-25T07:58:07.278Z,199.31
2024-01-25T07:59:07.265Z,200.00
2024-01-25T08:00:07.244Z,197.81
2024-01-25T08:01:07.466Z,198.75
2024-01-25T08:02:07.419Z,198.21
2024-01-25T08:03:07.248Z,199.31
2024-01-25T08:04:07.351Z,197.84
2024-01-25T08:05:07.411Z,199.24
2024-01-25T08:06:07.353Z,200.00
2024-01-25T08:07:07.437Z,198.94
2024-01-25T08:08:07.364Z,199.39
2024-01-25T08:09:07.260Z,198.96
2024-01-25T08:10:07.328Z,197.82
2024-01-25T08:11:07.296Z,199.25
2024-01-25T08:12:07.346Z,199.70
2024-01-25T08:13:08.152Z,199.21
2024-01-25T08:14:07.445Z,200.00
2024-01-25T08:15:07.501Z,199.22
2024-01-25T08:16:07.403Z,199.61
2024-01-25T08:17:07.443Z,199.70
2024-01-25T08:18:07.629Z,199.98
2024-01-25T08:19:07.583Z,199.45
2024-01-25T08:20:07.564Z,197.31
2024-01-25T08:21:07.511Z,198.24
2024-01-25T08:22:07.531Z,199.40
2024-01-25T08:23:07.481Z,200.00
2024-01-25T08:24:07.501Z,200.00
2024-01-25T08:25:07.585Z,199.93
2024-01-25T08:26:07.545Z,199.44
2024-01-25T08:27:07.562Z,199.29
2024-01-25T08:28:07.633Z,200.00
2024-01-25T08:29:07.586Z,198.52
2024-01-25T08:30:07.659Z,198.25
2024-01-25T08:31:07.682Z,199.35
2024-01-25T08:32:07.618Z,198.82
2024-01-25T08:33:07.801Z,200.00
2024-01-25T08:34:07.990Z,199.84
2024-01-25T08:35:07.836Z,199.11
2024-01-25T08:36:07.692Z,198.59
2024-01-25T08:37:07.783Z,198.86
2024-01-25T08:38:07.695Z,199.16
2024-01-25T08:39:07.729Z,198.81
2024-01-25T08:40:07.911Z,199.08
2024-01-25T08:41:07.751Z,198.75
2024-01-25T08:42:07.744Z,199.75
2024-01-25T08:43:07.829Z,199.56
2024-01-25T08:44:07.766Z,199.41
2024-01-25T08:45:07.787Z,199.39
2024-01-25T08:46:07.826Z,199.73
2024-01-25T08:47:07.863Z,200.00
2024-01-25T08:48:07.944Z,199.07
2024-01-25T08:49:07.974Z,199.77
2024-01-25T08:50:07.997Z,199.78
2024-01-25T08:51:07.880Z,198.50
2024-01-25T08:52:07.951Z,198.95
2024-01-25T08:53:07.920Z,198.93
2024-01-25T08:54:07.933Z,199.21
2024-01-25T08:55:08.049Z,197.68
2024-01-25T08:56:08.046Z,199.10
2024-01-25T08:57:08.139Z,197.89
2024-01-25T08:58:08.126Z,199.41
2024-01-25T08:59:08.147Z,198.39
2024-01-25T09:00:08.211Z,198.92
2024-01-25T09:01:08.353Z,199.02
2024-01-25T09:02:08.435Z,198.08
2024-01-25T09:03:08.406Z,198.60
2024-01-25T09:04:08.493Z,198.74
2024-01-25T09:05:08.916Z,197.94
2024-01-25T09:06:08.723Z,197.12
2024-01-25T09:07:08.724Z,197.54
2024-01-25T09:08:08.739Z,197.97
2024-01-25T09:09:08.741Z,196.67
2024-01-25T09:10:08.938Z,197.20
2024-01-25T09:11:08.874Z,196.89
2024-01-25T09:12:08.982Z,197.79
2024-01-25T09:13:09.033Z,197.68
2024-01-25T09:14:09.067Z,197.07
2024-01-25T09:15:09.150Z,196.23
2024-01-25T09:16:09.254Z,197.07
2024-01-25T09:17:09.343Z,196.30
2024-01-25T09:18:09.394Z,196.42
2024-01-25T09:19:10.112Z,196.21
2024-01-25T09:20:09.523Z,196.34
2024-01-25T09:21:09.452Z,195.37
2024-01-25T09:22:09.526Z,195.40
2024-01-25T09:23:09.463Z,193.84
2024-01-25T09:24:09.491Z,194.77
2024-01-25T09:25:10.147Z,194.98
2024-01-25T09:26:09.489Z,194.86
2024-01-25T09:27:09.497Z,193.47
2024-01-25T09:28:09.608Z,192.74
2024-01-25T09:29:09.485Z,193.52
2024-01-25T09:30:09.500Z,193.30
2024-01-25T09:31:09.577Z,192.16
2024-01-25T09:32:09.504Z,192.75
2024-01-25T09:33:09.627Z,192.72
2024-01-25T09:34:09.728Z,191.47
2024-01-25T09:35:09.657Z,192.38
2024-01-25T09:36:09.704Z,191.18
2024-01-25T09:37:09.691Z,191.04
2024-01-25T09:38:09.605Z,191.22
2024-01-25T09:39:09.603Z,191.49
2024-01-25T09:40:09.711Z,190.58
2024-01-25T09:41:09.655Z,190.39
2024-01-25T09:42:09.704Z,188.88
2024-01-25T09:43:09.745Z,188.53
2024-01-25T09:44:09.703Z,189.18
2024-01-25T09:45:09.761Z,187.98
2024-01-25T09:46:09.811Z,187.93
2024-01-25T09:47:09.814Z,189.17
2024-01-25T09:48:12.654Z,188.43
2024-01-25T09:49:09.981Z,187.09
2024-01-25T09:50:09.972Z,185.54
2024-01-25T09:51:09.832Z,188.45
2024-01-25T09:52:09.902Z,187.28
2024-01-25T09:53:09.838Z,186.73
2024-01-25T09:54:09.809Z,187.48
2024-01-25T09:55:09.873Z,186.02
2024-01-25T09:56:09.816Z,185.56
2024-01-25T09:57:09.815Z,185.72
2024-01-25T09:58:09.916Z,183.78
2024-01-25T09:59:09.846Z,184.27
2024-01-25T10:00:09.840Z,184.57
2024-01-25T10:01:09.873Z,184.09
2024-01-25T10:02:09.922Z,185.42
2024-01-25T10:03:09.829Z,184.14
2024-01-25T10:04:10.027Z,185.78
2024-01-25T10:05:10.023Z,186.36
2024-01-25T10:06:09.990Z,186.38
2024-01-25T10:07:09.923Z,186.62
2024-01-25T10:08:09.984Z,187.88
2024-01-25T10:09:09.838Z,188.06
2024-01-25T10:10:09.961Z,187.16
2024-01-25T10:11:09.883Z,188.28
2024-01-25T10:12:17.195Z,190.15
2024-01-25T10:13:10.892Z,190.30
2024-01-25T10:14:09.854Z,190.56
2024-01-25T10:15:09.869Z,191.26
2024-01-25T10:16:09.912Z,191.83
2024-01-25T10:17:09.946Z,193.11
2024-01-25T10:19:10.206Z,194.56
2024-01-25T10:20:09.998Z,194.79
2024-01-25T10:21:09.955Z,195.23
2024-01-25T10:22:10.091Z,196.79
2024-01-25T10:23:09.966Z,198.94
2024-01-25T10:24:10.004Z,198.85
2024-01-25T10:25:10.008Z,199.20
2024-01-25T10:26:09.865Z,199.96
2024-01-25T10:27:09.916Z,199.46
2024-01-25T10:28:09.972Z,200.00
2024-01-25T10:29:09.939Z,200.38
2024-01-25T10:30:09.880Z,199.54
2024-01-25T10:31:10.053Z,199.15
2024-01-25T10:32:09.893Z,198.03
2024-01-25T10:33:10.023Z,198.41
2024-01-25T10:34:09.909Z,198.99
2024-01-25T10:35:10.067Z,198.55
2024-01-25T10:36:09.889Z,199.45
2024-01-25T10:37:10.032Z,200.00
2024-01-25T10:38:09.864Z,198.30
2024-01-25T10:39:09.878Z,198.94
2024-01-25T10:40:09.903Z,199.71
2024-01-25T10:41:09.894Z,199.87
2024-01-25T10:42:09.895Z,199.46
2024-01-25T10:43:09.896Z,198.91
2024-01-25T10:44:09.926Z,200.00
2024-01-25T10:45:09.965Z,198.93
2024-01-25T10:46:10.155Z,199.69
2024-01-25T10:47:10.066Z,198.99
2024-01-25T10:48:10.167Z,197.81
2024-01-25T10:49:10.270Z,188.86
2024-01-25T10:50:10.352Z,176.55
2024-01-25T10:51:10.241Z,174.50
2024-01-25T10:52:10.296Z,159.29
2024-01-25T10:53:10.279Z,164.46
2024-01-25T10:54:10.266Z,169.41
2024-01-25T10:55:10.335Z,173.93
2024-01-25T10:56:10.315Z,175.53
2024-01-25T10:57:10.338Z,175.02
2024-01-25T10:58:10.449Z,174.95
2024-01-25T10:59:10.402Z,174.68
2024-01-25T11:00:10.437Z,174.39
2024-01-25T11:01:11.720Z,173.93
2024-01-25T11:02:10.622Z,172.91
2024-01-25T11:03:10.531Z,170.83
2024-01-25T11:04:10.594Z,169.10
2024-01-25T11:05:10.637Z,166.10
2024-01-25T11:06:10.703Z,164.59
2024-01-25T11:07:10.635Z,162.44
2024-01-25T11:08:10.513Z,159.38
2024-01-25T11:09:17.848Z,50.00
2024-01-25T11:10:17.932Z,50.00
2024-01-25T11:11:17.852Z,50.00
2024-01-25T11:12:17.872Z,50.00
2024-01-25T11:13:17.860Z,50.00
2024-01-25T11:14:17.821Z,50.24
2024-01-25T11:15:17.824Z,50.63
2024-01-25T11:16:18.130Z,50.66
2024-01-25T11:17:17.942Z,50.42
2024-01-25T11:18:18.089Z,50.00
2024-01-25T11:19:18.148Z,53.22
2024-01-25T11:20:18.107Z,53.59
2024-01-25T11:21:18.052Z,55.15
2024-01-25T11:22:23.159Z,52.80
2024-01-25T11:23:18.928Z,53.04
2024-01-25T11:24:18.091Z,54.14
2024-01-25T11:25:18.250Z,54.86
2024-01-25T11:26:18.099Z,59.49
2024-01-25T11:27:18.126Z,61.80
2024-01-25T11:28:18.236Z,64.14
2024-01-25T11:29:18.148Z,66.12
2024-01-25T11:30:18.120Z,68.02
2024-01-25T11:31:18.222Z,71.34
2024-01-25T11:32:18.174Z,72.78
2024-01-25T11:33:18.278Z,72.70
2024-01-25T11:34:18.326Z,76.56
2024-01-25T11:35:18.413Z,78.25
2024-01-25T11:36:18.139Z,77.92
2024-01-25T11:37:18.188Z,82.02
2024-01-25T11:38:18.161Z,84.95
2024-01-25T11:39:18.154Z,87.31
2024-01-25T11:40:18.174Z,89.08
2024-01-25T11:41:18.161Z,90.59
2024-01-25T11:42:18.127Z,92.01
2024-01-25T11:43:18.223Z,93.28
2024-01-25T11:44:18.129Z,94.99
2024-01-25T11:45:18.174Z,94.33
2024-01-25T11:46:18.257Z,96.07
2024-01-25T11:47:18.191Z,94.91
2024-01-25T11:48:18.293Z,94.40
2024-01-25T11:49:18.348Z,94.19
2024-01-25T11:50:18.392Z,94.24
2024-01-25T11:51:18.328Z,92.47
2024-01-25T11:52:18.375Z,90.73
2024-01-25T11:53:18.391Z,82.81
2024-01-25T11:54:18.414Z,60.15
2024-01-25T11:55:18.507Z,38.29
2024-01-25T11:56:18.534Z,11.38
2024-01-25T11:57:18.656Z,0.00
2024-01-25T11:58:18.702Z,0.00
2024-01-25T11:59:18.697Z,0.00
2024-01-25T12:00:18.702Z,7.87
2024-01-25T12:01:18.768Z,3.39
2024-01-25T12:02:18.789Z,19.40
2024-01-25T12:03:18.748Z,43.25
2024-01-25T12:04:18.930Z,67.36
2024-01-25T12:05:18.972Z,69.82
2024-01-25T12:06:18.929Z,68.99
2024-01-25T12:07:18.986Z,71.20
2024-01-25T12:08:18.863Z,69.36
2024-01-25T12:09:18.861Z,72.68
2024-01-25T12:10:19.026Z,71.73
2024-01-25T12:11:18.925Z,70.29
2024-01-25T12:12:18.963Z,71.76
2024-01-25T12:13:19.069Z,69.36
2024-01-25T12:14:19.090Z,69.62
2024-01-25T12:15:19.181Z,67.47
2024-01-25T12:16:19.240Z,68.67
2024-01-25T12:17:19.264Z,69.25
2024-01-25T12:18:19.401Z,66.32
2024-01-25T12:19:19.575Z,65.29
2024-01-25T12:20:19.578Z,65.33
2024-01-25T12:21:19.486Z,65.37
2024-01-25T12:22:19.598Z,60.90
2024-01-25T12:23:19.620Z,58.66
2024-01-25T12:24:19.662Z,57.88
2024-01-25T12:25:19.796Z,55.98
2024-01-25T12:26:19.827Z,53.66
2024-01-25T12:27:19.813Z,53.22
2024-01-25T12:28:19.888Z,50.24
2024-01-25T12:29:19.903Z,50.06
2024-01-25T12:30:19.960Z,50.86
2024-01-25T12:31:20.013Z,52.24
2024-01-25T12:32:20.021Z,50.00
2024-01-25T12:33:21.296Z,51.52
2024-01-25T12:34:20.208Z,52.69
2024-01-25T12:35:20.290Z,51.93
2024-01-25T12:36:20.263Z,51.79
2024-01-25T12:37:20.276Z,51.60
2024-01-25T12:38:20.265Z,50.85
2024-01-25T12:39:20.960Z,50.82
2024-01-25T12:40:20.436Z,51.08
2024-01-25T12:41:20.457Z,50.00
2024-01-25T12:42:20.395Z,51.02
2024-01-25T12:43:20.466Z,50.90
2024-01-25T12:44:20.418Z,51.39
2024-01-25T12:45:20.463Z,50.53
2024-01-25T12:46:26.547Z,50.19
2024-01-25T12:47:21.529Z,50.31
2024-01-25T12:48:20.507Z,49.07
2024-01-25T12:49:20.456Z,45.57
2024-01-25T12:50:20.453Z,43.88
2024-01-25T12:51:20.516Z,40.83
2024-01-25T12:52:20.487Z,49.75